sensor_id;sensor_type;location;lat;lon;timestamp;temperature;humidity
68109;SHT30;54893;49.864;19.084;2023-08-01T00:01:12;18.59;71.93
68109;SHT30;54893;49.864;19.084;2023-08-01T00:06:13;18.66;71.43
68109;SHT30;54893;49.864;19.084;2023-08-01T00:11:13;18.72;71.17
68109;SHT30;54893;49.864;19.084;2023-08-01T00:16:14;18.72;71.16
68109;SHT30;54893;49.864;19.084;2023-08-01T00:21:15;18.53;71.66
68109;SHT30;54893;49.864;19.084;2023-08-01T00:26:15;18.56;71.35
68109;SHT30;54893;49.864;19.084;2023-08-01T00:31:16;18.44;71.81
68109;SHT30;54893;49.864;19.084;2023-08-01T00:36:16;18.34;71.71
68109;SHT30;54893;49.864;19.084;2023-08-01T00:41:16;18.38;71.63
68109;SHT30;54893;49.864;19.084;2023-08-01T00:46:17;18.29;71.83
68109;SHT30;54893;49.864;19.084;2023-08-01T00:51:18;18.24;71.96
68109;SHT30;54893;49.864;19.084;2023-08-01T00:56:18;18.21;72.04
68109;SHT30;54893;49.864;19.084;2023-08-01T01:01:19;18.19;71.97
68109;SHT30;54893;49.864;19.084;2023-08-01T01:06:32;18.07;72.37
68109;SHT30;54893;49.864;19.084;2023-08-01T01:11:33;18.04;72.75
68109;SHT30;54893;49.864;19.084;2023-08-01T01:16:33;17.95;72.76
68109;SHT30;54893;49.864;19.084;2023-08-01T01:27:17;17.83;72.53
68109;SHT30;54893;49.864;19.084;2023-08-01T01:32:18;17.84;72.26
68109;SHT30;54893;49.864;19.084;2023-08-01T01:37:19;17.84;72.42
68109;SHT30;54893;49.864;19.084;2023-08-01T01:42:20;17.80;72.28
68109;SHT30;54893;49.864;19.084;2023-08-01T01:47:20;17.94;71.76
68109;SHT30;54893;49.864;19.084;2023-08-01T01:52:20;18.07;71.31
68109;SHT30;54893;49.864;19.084;2023-08-01T01:57:21;18.19;70.75
68109;SHT30;54893;49.864;19.084;2023-08-01T02:02:21;18.21;70.79
68109;SHT30;54893;49.864;19.084;2023-08-01T02:07:21;18.17;70.92
68109;SHT30;54893;49.864;19.084;2023-08-01T02:12:22;18.12;71.03
68109;SHT30;54893;49.864;19.084;2023-08-01T02:17:22;18.12;71.22
68109;SHT30;54893;49.864;19.084;2023-08-01T02:22:25;18.14;71.31
68109;SHT30;54893;49.864;19.084;2023-08-01T02:27:26;18.15;71.64
68109;SHT30;54893;49.864;19.084;2023-08-01T02:32:27;18.31;71.33
68109;SHT30;54893;49.864;19.084;2023-08-01T02:37:27;18.63;71.78
68109;SHT30;54893;49.864;19.084;2023-08-01T02:42:27;18.79;72.30
68109;SHT30;54893;49.864;19.084;2023-08-01T02:47:28;18.77;72.74
68109;SHT30;54893;49.864;19.084;2023-08-01T02:52:28;18.72;73.01
68109;SHT30;54893;49.864;19.084;2023-08-01T02:57:28;18.92;73.76
68109;SHT30;54893;49.864;19.084;2023-08-01T03:02:29;18.95;74.02
68109;SHT30;54893;49.864;19.084;2023-08-01T03:07:29;19.06;73.85
68109;SHT30;54893;49.864;19.084;2023-08-01T03:12:29;19.15;74.27
68109;SHT30;54893;49.864;19.084;2023-08-01T03:17:31;19.26;74.58
68109;SHT30;54893;49.864;19.084;2023-08-01T03:22:31;19.24;74.45
68109;SHT30;54893;49.864;19.084;2023-08-01T03:27:31;19.39;74.88
68109;SHT30;54893;49.864;19.084;2023-08-01T03:32:32;19.47;74.26
68109;SHT30;54893;49.864;19.084;2023-08-01T03:37:32;19.57;74.60
68109;SHT30;54893;49.864;19.084;2023-08-01T03:42:32;19.51;74.58
68109;SHT30;54893;49.864;19.084;2023-08-01T03:47:33;19.57;75.34
68109;SHT30;54893;49.864;19.084;2023-08-01T03:52:33;19.75;74.18
68109;SHT30;54893;49.864;19.084;2023-08-01T03:57:33;19.84;73.95
68109;SHT30;54893;49.864;19.084;2023-08-01T04:02:35;19.75;74.21
68109;SHT30;54893;49.864;19.084;2023-08-01T04:07:36;19.40;74.86
68109;SHT30;54893;49.864;19.084;2023-08-01T04:12:37;19.06;75.14
68109;SHT30;54893;49.864;19.084;2023-08-01T04:17:38;18.83;75.52
68109;SHT30;54893;49.864;19.084;2023-08-01T04:22:38;18.92;75.07
68109;SHT30;54893;49.864;19.084;2023-08-01T04:27:38;18.83;75.29
68109;SHT30;54893;49.864;19.084;2023-08-01T04:32:39;18.69;75.40
68109;SHT30;54893;49.864;19.084;2023-08-01T04:37:39;19.03;75.19
68109;SHT30;54893;49.864;19.084;2023-08-01T04:42:39;19.37;74.83
68109;SHT30;54893;49.864;19.084;2023-08-01T04:47:40;20.15;73.67
68109;SHT30;54893;49.864;19.084;2023-08-01T04:52:40;20.93;72.64
68109;SHT30;54893;49.864;19.084;2023-08-01T04:57:41;21.02;72.78
68109;SHT30;54893;49.864;19.084;2023-08-01T05:02:41;21.10;72.94
68109;SHT30;54893;49.864;19.084;2023-08-01T05:07:42;21.46;72.41
68109;SHT30;54893;49.864;19.084;2023-08-01T05:12:42;21.77;72.03
68109;SHT30;54893;49.864;19.084;2023-08-01T05:17:42;21.49;72.99
68109;SHT30;54893;49.864;19.084;2023-08-01T05:22:43;21.36;73.72
68109;SHT30;54893;49.864;19.084;2023-08-01T05:27:43;21.20;73.90
68109;SHT30;54893;49.864;19.084;2023-08-01T05:32:44;21.02;74.36
68109;SHT30;54893;49.864;19.084;2023-08-01T05:37:46;20.92;74.49
68109;SHT30;54893;49.864;19.084;2023-08-01T05:42:47;20.80;75.34
68109;SHT30;54893;49.864;19.084;2023-08-01T05:47:47;20.68;76.39
68109;SHT30;54893;49.864;19.084;2023-08-01T05:52:48;20.56;77.33
68109;SHT30;54893;49.864;19.084;2023-08-01T05:57:48;20.73;77.80
68109;SHT30;54893;49.864;19.084;2023-08-01T06:02:52;20.73;77.13
68109;SHT30;54893;49.864;19.084;2023-08-01T06:07:53;20.72;77.47
68109;SHT30;54893;49.864;19.084;2023-08-01T06:12:53;20.68;77.99
68109;SHT30;54893;49.864;19.084;2023-08-01T06:17:53;20.51;79.36
68109;SHT30;54893;49.864;19.084;2023-08-01T06:22:54;20.41;79.00
68109;SHT30;54893;49.864;19.084;2023-08-01T06:27:54;20.45;79.07
68109;SHT30;54893;49.864;19.084;2023-08-01T06:32:54;20.53;78.85
68109;SHT30;54893;49.864;19.084;2023-08-01T06:37:55;20.80;78.64
68109;SHT30;54893;49.864;19.084;2023-08-01T06:42:55;21.03;77.58
68109;SHT30;54893;49.864;19.084;2023-08-01T06:47:55;21.20;76.98
68109;SHT30;54893;49.864;19.084;2023-08-01T06:52:57;21.66;77.12
68109;SHT30;54893;49.864;19.084;2023-08-01T06:57:57;22.04;76.02
68109;SHT30;54893;49.864;19.084;2023-08-01T07:02:57;22.81;74.44
68109;SHT30;54893;49.864;19.084;2023-08-01T07:07:58;23.71;72.23
68109;SHT30;54893;49.864;19.084;2023-08-01T07:12:58;23.94;72.23
68109;SHT30;54893;49.864;19.084;2023-08-01T07:17:59;23.80;71.61
68109;SHT30;54893;49.864;19.084;2023-08-01T07:22:59;23.98;70.98
68109;SHT30;54893;49.864;19.084;2023-08-01T07:27:59;23.74;70.79
68109;SHT30;54893;49.864;19.084;2023-08-01T07:33:00;24.10;70.51
68109;SHT30;54893;49.864;19.084;2023-08-01T07:38:00;24.51;68.49
68109;SHT30;54893;49.864;19.084;2023-08-01T07:43:00;24.55;68.26
68109;SHT30;54893;49.864;19.084;2023-08-01T07:48:01;24.28;68.84
68109;SHT30;54893;49.864;19.084;2023-08-01T07:53:01;23.70;69.98
68109;SHT30;54893;49.864;19.084;2023-08-01T07:58:02;23.13;71.16
68109;SHT30;54893;49.864;19.084;2023-08-01T08:03:02;22.89;71.86
68109;SHT30;54893;49.864;19.084;2023-08-01T08:08:03;22.72;70.80
68109;SHT30;54893;49.864;19.084;2023-08-01T08:13:03;22.88;70.91
68109;SHT30;54893;49.864;19.084;2023-08-01T08:18:03;23.09;69.38
68109;SHT30;54893;49.864;19.084;2023-08-01T08:23:04;23.46;68.93
68109;SHT30;54893;49.864;19.084;2023-08-01T08:28:05;23.64;68.31
68109;SHT30;54893;49.864;19.084;2023-08-01T08:33:05;23.96;68.12
68109;SHT30;54893;49.864;19.084;2023-08-01T08:38:06;24.10;67.31
68109;SHT30;54893;49.864;19.084;2023-08-01T08:43:07;24.08;66.92
68109;SHT30;54893;49.864;19.084;2023-08-01T08:48:11;24.10;66.78
68109;SHT30;54893;49.864;19.084;2023-08-01T08:53:12;24.04;67.28
68109;SHT30;54893;49.864;19.084;2023-08-01T08:58:13;24.06;67.44
68109;SHT30;54893;49.864;19.084;2023-08-01T09:03:13;24.14;67.75
68109;SHT30;54893;49.864;19.084;2023-08-01T09:08:21;24.10;67.61
68109;SHT30;54893;49.864;19.084;2023-08-01T09:13:21;23.86;68.02
68109;SHT30;54893;49.864;19.084;2023-08-01T09:18:22;23.70;68.47
68109;SHT30;54893;49.864;19.084;2023-08-01T09:23:24;23.54;68.47
68109;SHT30;54893;49.864;19.084;2023-08-01T09:28:24;23.67;68.99
68109;SHT30;54893;49.864;19.084;2023-08-01T09:33:37;23.74;69.18
68109;SHT30;54893;49.864;19.084;2023-08-01T09:38:38;23.53;70.47
68109;SHT30;54893;49.864;19.084;2023-08-01T09:43:39;23.30;71.48
68109;SHT30;54893;49.864;19.084;2023-08-01T09:48:39;23.12;72.49
68109;SHT30;54893;49.864;19.084;2023-08-01T09:58:50;22.66;74.53
68109;SHT30;54893;49.864;19.084;2023-08-01T10:03:52;22.38;75.16
68109;SHT30;54893;49.864;19.084;2023-08-01T10:08:53;22.10;75.41
68109;SHT30;54893;49.864;19.084;2023-08-01T10:13:53;21.73;76.78
68109;SHT30;54893;49.864;19.084;2023-08-01T10:18:54;21.36;77.57
68109;SHT30;54893;49.864;19.084;2023-08-01T10:23:55;20.78;79.44
68109;SHT30;54893;49.864;19.084;2023-08-01T10:28:56;20.38;81.36
68109;SHT30;54893;49.864;19.084;2023-08-01T10:34:13;20.18;82.09
68109;SHT30;54893;49.864;19.084;2023-08-01T10:39:21;20.03;84.44
68109;SHT30;54893;49.864;19.084;2023-08-01T10:44:22;19.91;85.87
68109;SHT30;54893;49.864;19.084;2023-08-01T10:49:52;19.81;84.92
68109;SHT30;54893;49.864;19.084;2023-08-01T10:55:03;19.78;83.50
68109;SHT30;54893;49.864;19.084;2023-08-01T11:00:06;19.69;84.08
68109;SHT30;54893;49.864;19.084;2023-08-01T11:05:12;19.66;85.57
68109;SHT30;54893;49.864;19.084;2023-08-01T11:10:13;19.66;84.66
68109;SHT30;54893;49.864;19.084;2023-08-01T11:15:14;19.54;85.41
68109;SHT30;54893;49.864;19.084;2023-08-01T11:20:16;19.50;84.01
68109;SHT30;54893;49.864;19.084;2023-08-01T11:25:17;19.36;85.24
68109;SHT30;54893;49.864;19.084;2023-08-01T11:30:17;19.24;86.74
68109;SHT30;54893;49.864;19.084;2023-08-01T11:35:18;19.09;86.54
68109;SHT30;54893;49.864;19.084;2023-08-01T11:40:19;19.02;86.18
68109;SHT30;54893;49.864;19.084;2023-08-01T11:45:20;19.02;86.62
68109;SHT30;54893;49.864;19.084;2023-08-01T11:50:22;18.96;85.36
68109;SHT30;54893;49.864;19.084;2023-08-01T11:55:26;18.92;86.17
68109;SHT30;54893;49.864;19.084;2023-08-01T12:00:28;18.95;86.02
68109;SHT30;54893;49.864;19.084;2023-08-01T12:05:29;18.93;87.18
68109;SHT30;54893;49.864;19.084;2023-08-01T12:10:43;18.83;87.31
68109;SHT30;54893;49.864;19.084;2023-08-01T12:15:43;18.56;88.21
68109;SHT30;54893;49.864;19.084;2023-08-01T12:20:44;18.62;88.36
68109;SHT30;54893;49.864;19.084;2023-08-01T12:25:45;18.51;89.05
68109;SHT30;54893;49.864;19.084;2023-08-01T12:30:46;18.61;89.35
68109;SHT30;54893;49.864;19.084;2023-08-01T12:35:46;18.62;88.45
68109;SHT30;54893;49.864;19.084;2023-08-01T12:40:47;18.68;88.73
68109;SHT30;54893;49.864;19.084;2023-08-01T12:45:48;18.68;88.86
68109;SHT30;54893;49.864;19.084;2023-08-01T12:50:48;18.62;88.74
68109;SHT30;54893;49.864;19.084;2023-08-01T12:55:50;18.61;89.43
68109;SHT30;54893;49.864;19.084;2023-08-01T13:00:51;18.55;90.61
68109;SHT30;54893;49.864;19.084;2023-08-01T13:05:51;18.47;90.22
68109;SHT30;54893;49.864;19.084;2023-08-01T13:10:53;18.39;89.50
68109;SHT30;54893;49.864;19.084;2023-08-01T13:15:53;18.44;89.48
68109;SHT30;54893;49.864;19.084;2023-08-01T13:20:53;18.53;89.52
68109;SHT30;54893;49.864;19.084;2023-08-01T13:25:56;18.62;89.14
68109;SHT30;54893;49.864;19.084;2023-08-01T13:30:58;18.66;88.87
68109;SHT30;54893;49.864;19.084;2023-08-01T13:35:59;18.75;88.96
68109;SHT30;54893;49.864;19.084;2023-08-01T13:41:00;18.69;89.54
68109;SHT30;54893;49.864;19.084;2023-08-01T13:46:01;18.66;90.04
68109;SHT30;54893;49.864;19.084;2023-08-01T13:51:01;18.59;89.94
68109;SHT30;54893;49.864;19.084;2023-08-01T13:56:01;18.35;91.26
68109;SHT30;54893;49.864;19.084;2023-08-01T14:01:06;18.38;90.15
68109;SHT30;54893;49.864;19.084;2023-08-01T14:06:11;18.52;90.13
68109;SHT30;54893;49.864;19.084;2023-08-01T14:11:11;18.49;91.33
68109;SHT30;54893;49.864;19.084;2023-08-01T14:16:11;18.42;89.84
68109;SHT30;54893;49.864;19.084;2023-08-01T14:21:12;18.31;89.57
68109;SHT30;54893;49.864;19.084;2023-08-01T14:26:12;18.11;90.78
68109;SHT30;54893;49.864;19.084;2023-08-01T14:31:13;18.09;90.44
68109;SHT30;54893;49.864;19.084;2023-08-01T14:36:13;18.14;89.63
68109;SHT30;54893;49.864;19.084;2023-08-01T14:41:13;18.01;90.22
68109;SHT30;54893;49.864;19.084;2023-08-01T14:46:15;17.93;89.81
68109;SHT30;54893;49.864;19.084;2023-08-01T14:51:15;17.87;89.99
68109;SHT30;54893;49.864;19.084;2023-08-01T14:56:15;17.83;90.33
68109;SHT30;54893;49.864;19.084;2023-08-01T15:01:16;17.74;90.29
68109;SHT30;54893;49.864;19.084;2023-08-01T15:06:16;17.61;91.12
68109;SHT30;54893;49.864;19.084;2023-08-01T15:11:16;17.66;90.35
68109;SHT30;54893;49.864;19.084;2023-08-01T15:16:17;17.55;91.44
68109;SHT30;54893;49.864;19.084;2023-08-01T15:21:17;17.49;90.90
68109;SHT30;54893;49.864;19.084;2023-08-01T15:26:18;17.55;90.55
68109;SHT30;54893;49.864;19.084;2023-08-01T15:31:18;17.50;90.65
68109;SHT30;54893;49.864;19.084;2023-08-01T15:36:25;17.41;91.58
68109;SHT30;54893;49.864;19.084;2023-08-01T15:41:26;17.46;91.78
68109;SHT30;54893;49.864;19.084;2023-08-01T15:46:27;17.49;91.67
68109;SHT30;54893;49.864;19.084;2023-08-01T15:51:27;17.50;91.78
68109;SHT30;54893;49.864;19.084;2023-08-01T15:56:27;17.49;91.86
68109;SHT30;54893;49.864;19.084;2023-08-01T16:01:27;17.39;91.33
68109;SHT30;54893;49.864;19.084;2023-08-01T16:06:28;17.40;91.82
68109;SHT30;54893;49.864;19.084;2023-08-01T16:11:28;17.46;91.45
68109;SHT30;54893;49.864;19.084;2023-08-01T16:16:28;17.49;90.58
68109;SHT30;54893;49.864;19.084;2023-08-01T16:21:29;17.53;91.40
68109;SHT30;54893;49.864;19.084;2023-08-01T16:26:29;17.44;90.67
68109;SHT30;54893;49.864;19.084;2023-08-01T16:31:29;17.43;91.57
68109;SHT30;54893;49.864;19.084;2023-08-01T16:36:30;17.39;91.43
68109;SHT30;54893;49.864;19.084;2023-08-01T16:41:30;17.30;92.55
68109;SHT30;54893;49.864;19.084;2023-08-01T16:46:30;17.26;92.60
68109;SHT30;54893;49.864;19.084;2023-08-01T16:51:31;17.13;93.19
68109;SHT30;54893;49.864;19.084;2023-08-01T16:56:31;17.12;93.25
68109;SHT30;54893;49.864;19.084;2023-08-01T17:01:31;17.06;92.21
68109;SHT30;54893;49.864;19.084;2023-08-01T17:06:32;17.00;92.44
68109;SHT30;54893;49.864;19.084;2023-08-01T17:11:33;16.93;92.86
68109;SHT30;54893;49.864;19.084;2023-08-01T17:16:33;16.90;92.12
68109;SHT30;54893;49.864;19.084;2023-08-01T17:21:33;16.80;93.40
68109;SHT30;54893;49.864;19.084;2023-08-01T17:26:34;16.69;93.52
68109;SHT30;54893;49.864;19.084;2023-08-01T17:31:34;16.63;92.92
68109;SHT30;54893;49.864;19.084;2023-08-01T17:36:34;16.62;92.34
68109;SHT30;54893;49.864;19.084;2023-08-01T17:41:35;16.59;92.63
68109;SHT30;54893;49.864;19.084;2023-08-01T17:46:35;16.59;92.48
68109;SHT30;54893;49.864;19.084;2023-08-01T17:51:36;16.65;91.70
68109;SHT30;54893;49.864;19.084;2023-08-01T17:56:36;16.61;91.33
68109;SHT30;54893;49.864;19.084;2023-08-01T18:01:38;16.59;91.99
68109;SHT30;54893;49.864;19.084;2023-08-01T18:06:39;16.56;91.66
68109;SHT30;54893;49.864;19.084;2023-08-01T18:11:39;16.48;91.72
68109;SHT30;54893;49.864;19.084;2023-08-01T18:16:39;16.47;92.25
68109;SHT30;54893;49.864;19.084;2023-08-01T18:21:40;16.56;91.38
68109;SHT30;54893;49.864;19.084;2023-08-01T18:26:40;16.53;91.45
68109;SHT30;54893;49.864;19.084;2023-08-01T18:31:40;16.45;92.02
68109;SHT30;54893;49.864;19.084;2023-08-01T18:36:41;16.41;91.90
68109;SHT30;54893;49.864;19.084;2023-08-01T18:41:41;16.38;92.12
68109;SHT30;54893;49.864;19.084;2023-08-01T18:46:41;16.33;91.96
68109;SHT30;54893;49.864;19.084;2023-08-01T18:51:42;16.29;93.04
68109;SHT30;54893;49.864;19.084;2023-08-01T18:56:42;16.35;91.78
68109;SHT30;54893;49.864;19.084;2023-08-01T19:01:42;16.44;91.66
68109;SHT30;54893;49.864;19.084;2023-08-01T19:06:43;16.49;91.79
68109;SHT30;54893;49.864;19.084;2023-08-01T19:11:43;16.49;91.37
68109;SHT30;54893;49.864;19.084;2023-08-01T19:16:43;16.51;91.38
68109;SHT30;54893;49.864;19.084;2023-08-01T19:21:45;16.42;91.99
68109;SHT30;54893;49.864;19.084;2023-08-01T19:26:45;16.51;91.50
68109;SHT30;54893;49.864;19.084;2023-08-01T19:31:45;16.61;91.44
68109;SHT30;54893;49.864;19.084;2023-08-01T19:36:49;16.72;90.95
68109;SHT30;54893;49.864;19.084;2023-08-01T19:41:49;16.85;90.29
68109;SHT30;54893;49.864;19.084;2023-08-01T19:46:49;16.82;90.33
68109;SHT30;54893;49.864;19.084;2023-08-01T19:51:50;16.75;90.32
68109;SHT30;54893;49.864;19.084;2023-08-01T19:56:50;16.73;90.38
68109;SHT30;54893;49.864;19.084;2023-08-01T20:01:51;16.68;90.41
68109;SHT30;54893;49.864;19.084;2023-08-01T20:06:52;16.79;90.04
68109;SHT30;54893;49.864;19.084;2023-08-01T20:11:52;16.75;90.18
68109;SHT30;54893;49.864;19.084;2023-08-01T20:16:52;16.62;90.69
68109;SHT30;54893;49.864;19.084;2023-08-01T20:21:53;16.77;89.99
68109;SHT30;54893;49.864;19.084;2023-08-01T20:26:53;16.86;89.52
68109;SHT30;54893;49.864;19.084;2023-08-01T20:31:53;16.75;89.55
68109;SHT30;54893;49.864;19.084;2023-08-01T20:36:54;16.73;89.82
68109;SHT30;54893;49.864;19.084;2023-08-01T20:41:54;16.66;90.04
68109;SHT30;54893;49.864;19.084;2023-08-01T20:46:54;16.62;90.24
68109;SHT30;54893;49.864;19.084;2023-08-01T20:51:55;16.51;90.58
68109;SHT30;54893;49.864;19.084;2023-08-01T20:56:56;16.35;91.86
68109;SHT30;54893;49.864;19.084;2023-08-01T21:01:56;16.31;91.15
68109;SHT30;54893;49.864;19.084;2023-08-01T21:06:57;16.26;91.61
68109;SHT30;54893;49.864;19.084;2023-08-01T21:11:57;16.32;91.38
68109;SHT30;54893;49.864;19.084;2023-08-01T21:16:58;16.45;90.77
68109;SHT30;54893;49.864;19.084;2023-08-01T21:21:58;16.49;91.37
68109;SHT30;54893;49.864;19.084;2023-08-01T21:26:59;16.45;91.69
68109;SHT30;54893;49.864;19.084;2023-08-01T21:31:59;16.44;90.91
68109;SHT30;54893;49.864;19.084;2023-08-01T21:36:59;16.52;90.62
68109;SHT30;54893;49.864;19.084;2023-08-01T21:41:59;16.68;90.50
68109;SHT30;54893;49.864;19.084;2023-08-01T21:47:00;16.79;90.05
68109;SHT30;54893;49.864;19.084;2023-08-01T21:52:03;16.80;90.13
68109;SHT30;54893;49.864;19.084;2023-08-01T21:57:04;16.89;89.79
68109;SHT30;54893;49.864;19.084;2023-08-01T22:02:05;16.85;90.05
68109;SHT30;54893;49.864;19.084;2023-08-01T22:07:05;16.83;90.11
68109;SHT30;54893;49.864;19.084;2023-08-01T22:12:06;16.76;90.10
68109;SHT30;54893;49.864;19.084;2023-08-01T22:17:06;16.61;90.48
68109;SHT30;54893;49.864;19.084;2023-08-01T22:22:07;16.61;90.52
68109;SHT30;54893;49.864;19.084;2023-08-01T22:27:07;16.61;90.54
68109;SHT30;54893;49.864;19.084;2023-08-01T22:32:08;16.59;90.57
68109;SHT30;54893;49.864;19.084;2023-08-01T22:37:09;16.69;90.51
68109;SHT30;54893;49.864;19.084;2023-08-01T22:42:10;16.69;90.44
68109;SHT30;54893;49.864;19.084;2023-08-01T22:47:10;16.77;90.31
68109;SHT30;54893;49.864;19.084;2023-08-01T22:52:10;16.83;90.13
68109;SHT30;54893;49.864;19.084;2023-08-01T22:57:11;16.92;89.94
68109;SHT30;54893;49.864;19.084;2023-08-01T23:02:11;16.85;89.89
68109;SHT30;54893;49.864;19.084;2023-08-01T23:07:13;16.82;89.87
68109;SHT30;54893;49.864;19.084;2023-08-01T23:12:13;16.62;90.60
68109;SHT30;54893;49.864;19.084;2023-08-01T23:17:14;16.39;91.13
68109;SHT30;54893;49.864;19.084;2023-08-01T23:22:15;16.26;91.39
68109;SHT30;54893;49.864;19.084;2023-08-01T23:27:16;16.26;91.20
68109;SHT30;54893;49.864;19.084;2023-08-01T23:32:16;16.32;90.98
68109;SHT30;54893;49.864;19.084;2023-08-01T23:37:16;16.39;90.80
68109;SHT30;54893;49.864;19.084;2023-08-01T23:42:17;16.42;90.93
68109;SHT30;54893;49.864;19.084;2023-08-01T23:47:18;16.51;90.56
68109;SHT30;54893;49.864;19.084;2023-08-01T23:52:18;16.59;90.42
68109;SHT30;54893;49.864;19.084;2023-08-01T23:57:18;16.73;89.95
